KDDC

Dodge City Regional Airport

Dodge City, Kansas, USA
METAR KDDC 210652Z AUTO 08004KT 8SM CLR 11/09 A3012 RMK AO2 SLP188 T01060089 $
Observed Flight Rules
May-21 @ 06:52 UTC (13 minutes ago) Visual Flight Rules
Wind Visibility Clouds
80° at 4 knots 8 miles
  • Clear skies
Temperatures Readings
Current 11°C / 52°F
Dewpoint 9°C / 48°F
Humidity 88%
Altimeter 30.12" Hg
Pressure 1018.8 hPa
Elevation 789
METAR KDDC 210652Z AUTO 08004KT 8SM CLR 11/09 A3012 RMK AO2 SLP188 T01060089 $
Observed Flight Rules
May-21 @ 06:52 UTC
(13 minutes ago)
VFR
Wind Visibility
80° at 4 knots 8 miles
Clouds
  • Clear skies
Temperature Dewpoint
11°C / 52°F 9°C / 48°F
Humidity Altimeter Pressure
88% 30.12" Hg 1018.8 hPa